sensor_id;sensor_type;location;lat;lon;timestamp;temperature;humidity
42261;DHT22;27926;48.062;7.474;2023-07-13T00:00:33;19.60;99.90
42261;DHT22;27926;48.062;7.474;2023-07-13T00:02:58;19.70;99.90
42261;DHT22;27926;48.062;7.474;2023-07-13T00:05:24;19.70;99.90
42261;DHT22;27926;48.062;7.474;2023-07-13T00:07:50;19.80;99.90
42261;DHT22;27926;48.062;7.474;2023-07-13T00:10:15;19.90;99.90
42261;DHT22;27926;48.062;7.474;2023-07-13T00:12:40;19.90;99.90
42261;DHT22;27926;48.062;7.474;2023-07-13T00:15:11;19.90;99.90
42261;DHT22;27926;48.062;7.474;2023-07-13T00:17:36;20.00;99.90
42261;DHT22;27926;48.062;7.474;2023-07-13T00:20:03;20.10;99.90
42261;DHT22;27926;48.062;7.474;2023-07-13T00:22:28;20.00;99.90
42261;DHT22;27926;48.062;7.474;2023-07-13T00:24:53;20.00;99.90
42261;DHT22;27926;48.062;7.474;2023-07-13T00:27:20;20.00;99.90
42261;DHT22;27926;48.062;7.474;2023-07-13T00:29:45;20.00;99.90
42261;DHT22;27926;48.062;7.474;2023-07-13T00:32:09;19.90;99.90
42261;DHT22;27926;48.062;7.474;2023-07-13T00:34:35;19.90;99.90
42261;DHT22;27926;48.062;7.474;2023-07-13T00:37:00;19.90;99.90
42261;DHT22;27926;48.062;7.474;2023-07-13T00:39:24;19.90;99.90
42261;DHT22;27926;48.062;7.474;2023-07-13T00:41:49;19.90;99.90
42261;DHT22;27926;48.062;7.474;2023-07-13T00:44:15;19.90;99.90
42261;DHT22;27926;48.062;7.474;2023-07-13T00:46:40;19.80;99.90
42261;DHT22;27926;48.062;7.474;2023-07-13T00:49:06;19.80;99.90
42261;DHT22;27926;48.062;7.474;2023-07-13T00:51:39;19.80;99.90
42261;DHT22;27926;48.062;7.474;2023-07-13T00:54:07;19.80;99.90
42261;DHT22;27926;48.062;7.474;2023-07-13T00:56:34;19.70;99.90
42261;DHT22;27926;48.062;7.474;2023-07-13T00:58:59;19.60;99.90
42261;DHT22;27926;48.062;7.474;2023-07-13T01:01:24;19.50;99.90
42261;DHT22;27926;48.062;7.474;2023-07-13T01:03:49;19.50;99.90
42261;DHT22;27926;48.062;7.474;2023-07-13T01:06:14;19.40;99.90
42261;DHT22;27926;48.062;7.474;2023-07-13T01:08:39;19.30;99.90
42261;DHT22;27926;48.062;7.474;2023-07-13T01:11:04;19.30;99.90
42261;DHT22;27926;48.062;7.474;2023-07-13T01:13:29;19.20;99.90
42261;DHT22;27926;48.062;7.474;2023-07-13T01:15:55;19.10;99.90
42261;DHT22;27926;48.062;7.474;2023-07-13T01:18:25;19.10;99.90
42261;DHT22;27926;48.062;7.474;2023-07-13T01:20:58;19.00;99.90
42261;DHT22;27926;48.062;7.474;2023-07-13T01:23:24;19.00;99.90
42261;DHT22;27926;48.062;7.474;2023-07-13T01:25:49;18.90;99.90
42261;DHT22;27926;48.062;7.474;2023-07-13T01:28:14;18.90;99.90
42261;DHT22;27926;48.062;7.474;2023-07-13T01:30:42;18.90;99.90
42261;DHT22;27926;48.062;7.474;2023-07-13T01:33:09;18.80;99.90
42261;DHT22;27926;48.062;7.474;2023-07-13T01:35:34;18.80;99.90
42261;DHT22;27926;48.062;7.474;2023-07-13T01:37:58;18.70;99.90
42261;DHT22;27926;48.062;7.474;2023-07-13T01:40:25;18.60;99.90
42261;DHT22;27926;48.062;7.474;2023-07-13T01:42:50;18.60;99.90
42261;DHT22;27926;48.062;7.474;2023-07-13T01:45:14;18.50;99.90
42261;DHT22;27926;48.062;7.474;2023-07-13T01:47:39;18.50;99.90
42261;DHT22;27926;48.062;7.474;2023-07-13T01:50:04;18.50;99.90
42261;DHT22;27926;48.062;7.474;2023-07-13T01:52:29;18.40;99.90
42261;DHT22;27926;48.062;7.474;2023-07-13T01:54:54;18.40;99.90
42261;DHT22;27926;48.062;7.474;2023-07-13T01:57:18;18.40;99.90
42261;DHT22;27926;48.062;7.474;2023-07-13T01:59:43;18.40;99.90
42261;DHT22;27926;48.062;7.474;2023-07-13T02:02:08;18.40;99.90
42261;DHT22;27926;48.062;7.474;2023-07-13T02:04:32;18.30;99.90
42261;DHT22;27926;48.062;7.474;2023-07-13T02:06:57;18.30;99.90
42261;DHT22;27926;48.062;7.474;2023-07-13T02:09:22;18.40;99.90
42261;DHT22;27926;48.062;7.474;2023-07-13T02:11:46;18.40;99.90
42261;DHT22;27926;48.062;7.474;2023-07-13T02:14:12;18.40;99.90
42261;DHT22;27926;48.062;7.474;2023-07-13T02:16:38;18.50;99.90
42261;DHT22;27926;48.062;7.474;2023-07-13T02:19:03;18.50;99.90
42261;DHT22;27926;48.062;7.474;2023-07-13T02:21:27;18.50;99.90
42261;DHT22;27926;48.062;7.474;2023-07-13T02:23:52;18.50;99.90
42261;DHT22;27926;48.062;7.474;2023-07-13T02:26:17;18.60;99.90
42261;DHT22;27926;48.062;7.474;2023-07-13T02:28:42;18.60;99.90
42261;DHT22;27926;48.062;7.474;2023-07-13T02:31:14;18.60;99.90
42261;DHT22;27926;48.062;7.474;2023-07-13T02:33:39;18.60;99.90
42261;DHT22;27926;48.062;7.474;2023-07-13T02:36:04;18.60;99.90
42261;DHT22;27926;48.062;7.474;2023-07-13T02:38:29;18.60;99.90
42261;DHT22;27926;48.062;7.474;2023-07-13T02:40:54;18.60;99.90
42261;DHT22;27926;48.062;7.474;2023-07-13T02:43:19;18.60;99.90
42261;DHT22;27926;48.062;7.474;2023-07-13T02:45:44;18.60;99.90
42261;DHT22;27926;48.062;7.474;2023-07-13T02:48:09;18.60;99.90
42261;DHT22;27926;48.062;7.474;2023-07-13T02:50:33;18.60;99.90
42261;DHT22;27926;48.062;7.474;2023-07-13T02:52:58;18.60;99.90
42261;DHT22;27926;48.062;7.474;2023-07-13T02:55:22;18.60;99.90
42261;DHT22;27926;48.062;7.474;2023-07-13T02:57:47;18.60;99.90
42261;DHT22;27926;48.062;7.474;2023-07-13T03:00:12;18.60;99.90
42261;DHT22;27926;48.062;7.474;2023-07-13T03:02:36;18.60;99.90
42261;DHT22;27926;48.062;7.474;2023-07-13T03:05:04;18.50;99.90
42261;DHT22;27926;48.062;7.474;2023-07-13T03:07:30;18.50;99.90
42261;DHT22;27926;48.062;7.474;2023-07-13T03:09:56;18.40;99.90
42261;DHT22;27926;48.062;7.474;2023-07-13T03:12:21;18.40;99.90
42261;DHT22;27926;48.062;7.474;2023-07-13T03:14:46;18.40;99.90
42261;DHT22;27926;48.062;7.474;2023-07-13T03:17:10;18.40;99.90
42261;DHT22;27926;48.062;7.474;2023-07-13T03:19:35;18.40;99.90
42261;DHT22;27926;48.062;7.474;2023-07-13T03:21:59;18.40;99.90
42261;DHT22;27926;48.062;7.474;2023-07-13T03:24:24;18.30;99.90
42261;DHT22;27926;48.062;7.474;2023-07-13T03:26:50;18.20;99.90
42261;DHT22;27926;48.062;7.474;2023-07-13T03:29:14;18.20;99.90
42261;DHT22;27926;48.062;7.474;2023-07-13T03:31:39;18.10;99.90
42261;DHT22;27926;48.062;7.474;2023-07-13T03:34:04;18.10;99.90
42261;DHT22;27926;48.062;7.474;2023-07-13T03:36:30;18.10;99.90
42261;DHT22;27926;48.062;7.474;2023-07-13T03:38:57;18.00;99.90
42261;DHT22;27926;48.062;7.474;2023-07-13T03:41:22;18.00;99.90
42261;DHT22;27926;48.062;7.474;2023-07-13T03:43:48;18.00;99.90
42261;DHT22;27926;48.062;7.474;2023-07-13T03:46:12;17.90;99.90
42261;DHT22;27926;48.062;7.474;2023-07-13T03:48:37;17.80;99.90
42261;DHT22;27926;48.062;7.474;2023-07-13T03:51:04;17.60;99.90
42261;DHT22;27926;48.062;7.474;2023-07-13T03:53:32;17.60;99.90
42261;DHT22;27926;48.062;7.474;2023-07-13T03:55:57;18.00;99.90
42261;DHT22;27926;48.062;7.474;2023-07-13T03:58:34;17.50;99.90
42261;DHT22;27926;48.062;7.474;2023-07-13T04:00:59;17.50;99.90
42261;DHT22;27926;48.062;7.474;2023-07-13T04:03:25;17.50;99.90
42261;DHT22;27926;48.062;7.474;2023-07-13T04:05:52;17.60;99.90
42261;DHT22;27926;48.062;7.474;2023-07-13T04:08:17;17.60;99.90
42261;DHT22;27926;48.062;7.474;2023-07-13T04:10:42;17.70;99.90
42261;DHT22;27926;48.062;7.474;2023-07-13T04:13:07;17.80;99.90
42261;DHT22;27926;48.062;7.474;2023-07-13T04:15:32;17.80;99.90
42261;DHT22;27926;48.062;7.474;2023-07-13T04:17:57;17.90;99.90
42261;DHT22;27926;48.062;7.474;2023-07-13T04:20:22;18.10;99.90
42261;DHT22;27926;48.062;7.474;2023-07-13T04:22:47;18.20;99.90
42261;DHT22;27926;48.062;7.474;2023-07-13T04:25:11;18.40;99.90
42261;DHT22;27926;48.062;7.474;2023-07-13T04:27:36;18.40;99.90
42261;DHT22;27926;48.062;7.474;2023-07-13T04:30:00;18.40;99.90
42261;DHT22;27926;48.062;7.474;2023-07-13T04:32:25;18.40;99.90
42261;DHT22;27926;48.062;7.474;2023-07-13T04:34:49;18.40;99.90
42261;DHT22;27926;48.062;7.474;2023-07-13T04:37:17;18.40;99.90
42261;DHT22;27926;48.062;7.474;2023-07-13T04:39:42;18.30;99.90
42261;DHT22;27926;48.062;7.474;2023-07-13T04:42:06;18.30;99.90
42261;DHT22;27926;48.062;7.474;2023-07-13T04:44:31;18.30;99.90
42261;DHT22;27926;48.062;7.474;2023-07-13T04:46:56;18.20;99.90
42261;DHT22;27926;48.062;7.474;2023-07-13T04:49:20;18.10;99.90
42261;DHT22;27926;48.062;7.474;2023-07-13T04:51:45;18.10;99.90
42261;DHT22;27926;48.062;7.474;2023-07-13T04:54:09;18.30;99.90
42261;DHT22;27926;48.062;7.474;2023-07-13T04:56:34;18.40;99.90
42261;DHT22;27926;48.062;7.474;2023-07-13T04:58:58;18.40;99.90
42261;DHT22;27926;48.062;7.474;2023-07-13T05:01:23;18.50;99.90
42261;DHT22;27926;48.062;7.474;2023-07-13T05:03:48;18.50;99.90
42261;DHT22;27926;48.062;7.474;2023-07-13T05:06:12;18.60;99.90
42261;DHT22;27926;48.062;7.474;2023-07-13T05:08:38;18.70;99.90
42261;DHT22;27926;48.062;7.474;2023-07-13T05:11:04;18.80;99.90
42261;DHT22;27926;48.062;7.474;2023-07-13T05:13:30;18.90;99.90
42261;DHT22;27926;48.062;7.474;2023-07-13T05:15:59;19.00;99.90
42261;DHT22;27926;48.062;7.474;2023-07-13T05:18:25;19.20;99.90
42261;DHT22;27926;48.062;7.474;2023-07-13T05:21:07;19.30;99.90
42261;DHT22;27926;48.062;7.474;2023-07-13T05:23:36;19.40;99.90
42261;DHT22;27926;48.062;7.474;2023-07-13T05:26:02;20.10;99.90
42261;DHT22;27926;48.062;7.474;2023-07-13T05:28:28;19.80;99.90
42261;DHT22;27926;48.062;7.474;2023-07-13T05:30:53;19.90;99.90
42261;DHT22;27926;48.062;7.474;2023-07-13T05:33:18;20.10;99.90
42261;DHT22;27926;48.062;7.474;2023-07-13T05:35:43;20.20;99.90
42261;DHT22;27926;48.062;7.474;2023-07-13T05:38:07;20.70;99.90
42261;DHT22;27926;48.062;7.474;2023-07-13T05:40:32;21.10;99.90
42261;DHT22;27926;48.062;7.474;2023-07-13T05:42:57;21.80;99.90
42261;DHT22;27926;48.062;7.474;2023-07-13T05:45:21;23.00;99.90
42261;DHT22;27926;48.062;7.474;2023-07-13T05:47:46;24.20;99.90
42261;DHT22;27926;48.062;7.474;2023-07-13T05:50:10;24.50;99.90
42261;DHT22;27926;48.062;7.474;2023-07-13T05:52:35;24.50;99.90
42261;DHT22;27926;48.062;7.474;2023-07-13T05:54:59;25.10;99.90
42261;DHT22;27926;48.062;7.474;2023-07-13T05:57:24;26.00;98.90
42261;DHT22;27926;48.062;7.474;2023-07-13T05:59:49;26.80;98.30
42261;DHT22;27926;48.062;7.474;2023-07-13T06:02:14;27.40;97.60
42261;DHT22;27926;48.062;7.474;2023-07-13T06:04:38;27.90;96.50
42261;DHT22;27926;48.062;7.474;2023-07-13T06:07:03;28.30;95.70
42261;DHT22;27926;48.062;7.474;2023-07-13T06:09:27;28.70;95.40
42261;DHT22;27926;48.062;7.474;2023-07-13T06:11:52;29.00;94.30
42261;DHT22;27926;48.062;7.474;2023-07-13T06:14:17;28.50;93.60
42261;DHT22;27926;48.062;7.474;2023-07-13T06:16:41;27.40;94.90
42261;DHT22;27926;48.062;7.474;2023-07-13T06:19:06;26.90;95.30
42261;DHT22;27926;48.062;7.474;2023-07-13T06:21:31;26.90;95.50
42261;DHT22;27926;48.062;7.474;2023-07-13T06:23:55;27.40;95.40
42261;DHT22;27926;48.062;7.474;2023-07-13T06:26:21;28.00;94.90
42261;DHT22;27926;48.062;7.474;2023-07-13T06:28:45;28.70;93.70
42261;DHT22;27926;48.062;7.474;2023-07-13T06:31:11;28.80;93.10
42261;DHT22;27926;48.062;7.474;2023-07-13T06:33:37;28.50;93.20
42261;DHT22;27926;48.062;7.474;2023-07-13T06:36:02;28.40;93.30
42261;DHT22;27926;48.062;7.474;2023-07-13T06:38:27;28.20;93.40
42261;DHT22;27926;48.062;7.474;2023-07-13T06:40:52;27.90;93.70
42261;DHT22;27926;48.062;7.474;2023-07-13T06:43:16;28.00;93.20
42261;DHT22;27926;48.062;7.474;2023-07-13T06:45:44;28.30;93.60
42261;DHT22;27926;48.062;7.474;2023-07-13T06:48:10;28.60;92.40
42261;DHT22;27926;48.062;7.474;2023-07-13T06:50:34;28.70;92.70
42261;DHT22;27926;48.062;7.474;2023-07-13T06:53:00;28.70;92.30
42261;DHT22;27926;48.062;7.474;2023-07-13T06:55:24;28.50;91.60
42261;DHT22;27926;48.062;7.474;2023-07-13T06:57:49;28.50;92.10
42261;DHT22;27926;48.062;7.474;2023-07-13T07:00:14;28.30;92.80
42261;DHT22;27926;48.062;7.474;2023-07-13T07:02:38;28.40;92.30
42261;DHT22;27926;48.062;7.474;2023-07-13T07:05:03;28.20;92.90
42261;DHT22;27926;48.062;7.474;2023-07-13T07:07:28;28.00;92.50
42261;DHT22;27926;48.062;7.474;2023-07-13T07:09:52;27.80;92.10
42261;DHT22;27926;48.062;7.474;2023-07-13T07:12:17;27.60;91.80
42261;DHT22;27926;48.062;7.474;2023-07-13T07:14:41;27.30;91.10
42261;DHT22;27926;48.062;7.474;2023-07-13T07:17:06;26.70;92.30
42261;DHT22;27926;48.062;7.474;2023-07-13T07:19:31;26.60;92.00
42261;DHT22;27926;48.062;7.474;2023-07-13T07:21:55;26.80;92.60
42261;DHT22;27926;48.062;7.474;2023-07-13T07:24:20;27.20;92.10
42261;DHT22;27926;48.062;7.474;2023-07-13T07:26:44;26.80;91.20
42261;DHT22;27926;48.062;7.474;2023-07-13T07:29:09;26.60;92.50
42261;DHT22;27926;48.062;7.474;2023-07-13T07:31:34;26.50;92.20
42261;DHT22;27926;48.062;7.474;2023-07-13T07:33:58;26.60;91.70
42261;DHT22;27926;48.062;7.474;2023-07-13T07:36:23;26.50;92.20
42261;DHT22;27926;48.062;7.474;2023-07-13T07:38:48;26.50;93.00
42261;DHT22;27926;48.062;7.474;2023-07-13T07:41:13;26.40;92.50
42261;DHT22;27926;48.062;7.474;2023-07-13T07:43:38;26.50;92.70
42261;DHT22;27926;48.062;7.474;2023-07-13T07:46:03;26.90;92.80
42261;DHT22;27926;48.062;7.474;2023-07-13T07:48:28;27.00;91.10
42261;DHT22;27926;48.062;7.474;2023-07-13T07:50:52;26.90;91.40
42261;DHT22;27926;48.062;7.474;2023-07-13T07:53:17;26.80;91.60
42261;DHT22;27926;48.062;7.474;2023-07-13T07:55:41;26.80;92.00
42261;DHT22;27926;48.062;7.474;2023-07-13T07:58:07;26.70;91.50
42261;DHT22;27926;48.062;7.474;2023-07-13T08:00:32;26.50;91.80
42261;DHT22;27926;48.062;7.474;2023-07-13T08:02:57;26.50;92.10
42261;DHT22;27926;48.062;7.474;2023-07-13T08:05:21;26.80;92.40
42261;DHT22;27926;48.062;7.474;2023-07-13T08:07:46;26.90;91.20
42261;DHT22;27926;48.062;7.474;2023-07-13T08:10:11;26.80;92.60
42261;DHT22;27926;48.062;7.474;2023-07-13T08:12:37;26.90;91.70
42261;DHT22;27926;48.062;7.474;2023-07-13T08:15:02;27.00;92.30
42261;DHT22;27926;48.062;7.474;2023-07-13T08:17:27;26.80;91.80
42261;DHT22;27926;48.062;7.474;2023-07-13T08:19:51;26.80;92.00
42261;DHT22;27926;48.062;7.474;2023-07-13T08:22:16;26.60;92.30
42261;DHT22;27926;48.062;7.474;2023-07-13T08:24:44;26.60;92.30
42261;DHT22;27926;48.062;7.474;2023-07-13T08:27:09;26.60;92.00
42261;DHT22;27926;48.062;7.474;2023-07-13T08:29:35;26.70;93.00
42261;DHT22;27926;48.062;7.474;2023-07-13T08:32:00;27.00;92.40
42261;DHT22;27926;48.062;7.474;2023-07-13T08:34:25;27.10;92.70
42261;DHT22;27926;48.062;7.474;2023-07-13T08:36:49;27.20;92.60
42261;DHT22;27926;48.062;7.474;2023-07-13T08:39:14;27.20;90.70
42261;DHT22;27926;48.062;7.474;2023-07-13T08:41:39;27.40;91.60
42261;DHT22;27926;48.062;7.474;2023-07-13T08:44:06;27.30;91.10
42261;DHT22;27926;48.062;7.474;2023-07-13T08:46:40;27.40;92.00
42261;DHT22;27926;48.062;7.474;2023-07-13T08:49:15;27.70;91.40
42261;DHT22;27926;48.062;7.474;2023-07-13T08:51:45;28.10;91.50
42261;DHT22;27926;48.062;7.474;2023-07-13T08:56:56;28.10;90.40
42261;DHT22;27926;48.062;7.474;2023-07-13T08:59:27;28.30;89.60
42261;DHT22;27926;48.062;7.474;2023-07-13T09:04:36;28.30;87.10
42261;DHT22;27926;48.062;7.474;2023-07-13T09:10:15;28.50;90.00
42261;DHT22;27926;48.062;7.474;2023-07-13T09:15:44;28.10;88.10
42261;DHT22;27926;48.062;7.474;2023-07-13T09:20:49;27.60;90.40
42261;DHT22;27926;48.062;7.474;2023-07-13T09:23:17;27.80;90.80
42261;DHT22;27926;48.062;7.474;2023-07-13T09:25:47;28.10;90.60
42261;DHT22;27926;48.062;7.474;2023-07-13T09:28:19;28.20;90.40
42261;DHT22;27926;48.062;7.474;2023-07-13T09:30:51;28.20;90.30
42261;DHT22;27926;48.062;7.474;2023-07-13T09:33:17;27.90;90.20
42261;DHT22;27926;48.062;7.474;2023-07-13T09:35:43;27.40;90.60
42261;DHT22;27926;48.062;7.474;2023-07-13T09:38:16;27.10;91.90
42261;DHT22;27926;48.062;7.474;2023-07-13T09:41:07;26.80;91.50
42261;DHT22;27926;48.062;7.474;2023-07-13T09:43:35;26.60;90.80
42261;DHT22;27926;48.062;7.474;2023-07-13T09:45:59;26.70;91.70
42261;DHT22;27926;48.062;7.474;2023-07-13T09:48:24;26.80;91.00
42261;DHT22;27926;48.062;7.474;2023-07-13T09:50:54;26.90;91.70
42261;DHT22;27926;48.062;7.474;2023-07-13T09:53:20;26.80;92.10
42261;DHT22;27926;48.062;7.474;2023-07-13T09:55:48;26.70;91.90
42261;DHT22;27926;48.062;7.474;2023-07-13T09:58:17;26.40;90.70
42261;DHT22;27926;48.062;7.474;2023-07-13T10:01:02;26.20;91.30
42261;DHT22;27926;48.062;7.474;2023-07-13T10:03:33;26.00;91.40
42261;DHT22;27926;48.062;7.474;2023-07-13T10:06:16;25.90;90.90
42261;DHT22;27926;48.062;7.474;2023-07-13T10:08:41;25.80;90.60
42261;DHT22;27926;48.062;7.474;2023-07-13T10:13:50;26.00;90.90
42261;DHT22;27926;48.062;7.474;2023-07-13T10:16:15;26.00;91.10
42261;DHT22;27926;48.062;7.474;2023-07-13T10:18:51;25.90;91.60
42261;DHT22;27926;48.062;7.474;2023-07-13T10:21:19;26.30;92.30
42261;DHT22;27926;48.062;7.474;2023-07-13T10:23:48;26.50;91.20
42261;DHT22;27926;48.062;7.474;2023-07-13T10:26:22;26.40;91.30
42261;DHT22;27926;48.062;7.474;2023-07-13T10:28:52;26.00;91.20
42261;DHT22;27926;48.062;7.474;2023-07-13T10:31:18;26.10;90.20
42261;DHT22;27926;48.062;7.474;2023-07-13T10:33:44;26.50;91.00
42261;DHT22;27926;48.062;7.474;2023-07-13T10:36:13;26.80;90.50
42261;DHT22;27926;48.062;7.474;2023-07-13T10:38:39;27.30;90.00
42261;DHT22;27926;48.062;7.474;2023-07-13T10:41:07;27.50;89.90
42261;DHT22;27926;48.062;7.474;2023-07-13T10:43:42;27.50;90.20
42261;DHT22;27926;48.062;7.474;2023-07-13T10:46:11;27.50;88.20
42261;DHT22;27926;48.062;7.474;2023-07-13T10:48:37;27.80;90.00
42261;DHT22;27926;48.062;7.474;2023-07-13T10:51:05;27.90;89.30
42261;DHT22;27926;48.062;7.474;2023-07-13T10:53:33;27.90;90.40
42261;DHT22;27926;48.062;7.474;2023-07-13T10:58:44;27.90;90.60
42261;DHT22;27926;48.062;7.474;2023-07-13T11:01:10;28.00;90.30
42261;DHT22;27926;48.062;7.474;2023-07-13T11:18:53;28.30;90.60
42261;DHT22;27926;48.062;7.474;2023-07-13T11:21:32;28.40;89.80
42261;DHT22;27926;48.062;7.474;2023-07-13T11:24:16;28.40;89.20
42261;DHT22;27926;48.062;7.474;2023-07-13T11:31:39;27.90;90.40
42261;DHT22;27926;48.062;7.474;2023-07-13T11:34:12;27.70;90.20
42261;DHT22;27926;48.062;7.474;2023-07-13T11:36:39;27.50;90.60
42261;DHT22;27926;48.062;7.474;2023-07-13T11:39:17;27.30;90.40
42261;DHT22;27926;48.062;7.474;2023-07-13T11:41:50;27.30;91.40
42261;DHT22;27926;48.062;7.474;2023-07-13T11:44:19;27.40;91.50
42261;DHT22;27926;48.062;7.474;2023-07-13T11:46:46;27.40;91.10
42261;DHT22;27926;48.062;7.474;2023-07-13T11:49:15;27.40;90.70
42261;DHT22;27926;48.062;7.474;2023-07-13T11:51:40;27.60;90.60
42261;DHT22;27926;48.062;7.474;2023-07-13T11:54:13;28.00;91.60
42261;DHT22;27926;48.062;7.474;2023-07-13T11:56:38;28.30;91.10
42261;DHT22;27926;48.062;7.474;2023-07-13T11:59:06;28.50;91.00
42261;DHT22;27926;48.062;7.474;2023-07-13T12:01:32;28.70;90.50
42261;DHT22;27926;48.062;7.474;2023-07-13T12:04:04;28.80;88.50
42261;DHT22;27926;48.062;7.474;2023-07-13T12:06:35;28.80;89.90
42261;DHT22;27926;48.062;7.474;2023-07-13T12:09:12;28.90;89.80
42261;DHT22;27926;48.062;7.474;2023-07-13T12:11:39;28.90;89.70
42261;DHT22;27926;48.062;7.474;2023-07-13T12:14:04;29.00;89.30
42261;DHT22;27926;48.062;7.474;2023-07-13T12:16:30;29.00;89.90
42261;DHT22;27926;48.062;7.474;2023-07-13T12:18:57;29.10;89.80
42261;DHT22;27926;48.062;7.474;2023-07-13T12:21:31;29.10;89.20
42261;DHT22;27926;48.062;7.474;2023-07-13T12:23:56;28.60;88.50
42261;DHT22;27926;48.062;7.474;2023-07-13T12:26:21;28.10;90.00
42261;DHT22;27926;48.062;7.474;2023-07-13T12:28:47;27.70;90.30
42261;DHT22;27926;48.062;7.474;2023-07-13T12:34:02;27.80;88.40
42261;DHT22;27926;48.062;7.474;2023-07-13T12:36:31;27.70;88.60
42261;DHT22;27926;48.062;7.474;2023-07-13T12:38:58;27.60;89.20
42261;DHT22;27926;48.062;7.474;2023-07-13T12:41:28;27.60;90.10
42261;DHT22;27926;48.062;7.474;2023-07-13T12:43:52;27.60;91.10
42261;DHT22;27926;48.062;7.474;2023-07-13T12:46:19;27.40;91.10
42261;DHT22;27926;48.062;7.474;2023-07-13T12:48:49;27.30;89.00
42261;DHT22;27926;48.062;7.474;2023-07-13T12:51:15;27.30;89.50
42261;DHT22;27926;48.062;7.474;2023-07-13T12:53:41;27.50;90.10
42261;DHT22;27926;48.062;7.474;2023-07-13T12:56:06;27.60;88.70
42261;DHT22;27926;48.062;7.474;2023-07-13T12:58:39;27.70;89.60
42261;DHT22;27926;48.062;7.474;2023-07-13T13:01:05;27.50;86.90
42261;DHT22;27926;48.062;7.474;2023-07-13T13:03:31;27.30;87.00
42261;DHT22;27926;48.062;7.474;2023-07-13T13:06:20;27.40;88.60
42261;DHT22;27926;48.062;7.474;2023-07-13T13:09:13;27.40;85.10
42261;DHT22;27926;48.062;7.474;2023-07-13T13:11:38;27.50;85.50
42261;DHT22;27926;48.062;7.474;2023-07-13T13:14:04;27.60;88.80
42261;DHT22;27926;48.062;7.474;2023-07-13T13:16:32;27.80;86.80
42261;DHT22;27926;48.062;7.474;2023-07-13T13:19:20;27.70;85.10
42261;DHT22;27926;48.062;7.474;2023-07-13T13:21:46;27.50;86.60
42261;DHT22;27926;48.062;7.474;2023-07-13T13:24:17;27.50;85.10
42261;DHT22;27926;48.062;7.474;2023-07-13T13:26:44;27.70;86.70
42261;DHT22;27926;48.062;7.474;2023-07-13T13:29:21;28.10;86.40
42261;DHT22;27926;48.062;7.474;2023-07-13T13:31:48;28.50;88.30
42261;DHT22;27926;48.062;7.474;2023-07-13T13:34:16;28.60;85.50
42261;DHT22;27926;48.062;7.474;2023-07-13T13:36:42;28.30;85.50
42261;DHT22;27926;48.062;7.474;2023-07-13T13:39:20;27.80;85.60
42261;DHT22;27926;48.062;7.474;2023-07-13T13:41:50;27.60;88.70
42261;DHT22;27926;48.062;7.474;2023-07-13T13:44:19;27.60;87.40
42261;DHT22;27926;48.062;7.474;2023-07-13T13:46:46;27.80;87.20
42261;DHT22;27926;48.062;7.474;2023-07-13T13:49:16;27.90;86.40
42261;DHT22;27926;48.062;7.474;2023-07-13T13:51:42;28.00;89.50
42261;DHT22;27926;48.062;7.474;2023-07-13T13:54:11;28.10;87.60
42261;DHT22;27926;48.062;7.474;2023-07-13T13:56:36;28.20;87.50
42261;DHT22;27926;48.062;7.474;2023-07-13T13:59:00;28.10;85.70
42261;DHT22;27926;48.062;7.474;2023-07-13T14:01:29;28.20;85.60
42261;DHT22;27926;48.062;7.474;2023-07-13T14:03:55;28.30;86.80
42261;DHT22;27926;48.062;7.474;2023-07-13T14:06:20;28.10;85.30
42261;DHT22;27926;48.062;7.474;2023-07-13T14:08:45;28.00;84.70
42261;DHT22;27926;48.062;7.474;2023-07-13T14:11:15;27.60;86.20
42261;DHT22;27926;48.062;7.474;2023-07-13T14:13:45;27.30;87.10
42261;DHT22;27926;48.062;7.474;2023-07-13T14:16:15;27.00;87.50
42261;DHT22;27926;48.062;7.474;2023-07-13T14:18:41;26.90;86.50
42261;DHT22;27926;48.062;7.474;2023-07-13T14:21:17;27.20;87.80
42261;DHT22;27926;48.062;7.474;2023-07-13T14:23:44;27.30;87.20
42261;DHT22;27926;48.062;7.474;2023-07-13T14:26:29;27.40;86.30
42261;DHT22;27926;48.062;7.474;2023-07-13T14:28:57;27.40;86.10
42261;DHT22;27926;48.062;7.474;2023-07-13T14:31:25;27.30;86.40
42261;DHT22;27926;48.062;7.474;2023-07-13T14:33:49;27.20;85.00
42261;DHT22;27926;48.062;7.474;2023-07-13T14:36:33;27.10;86.40
42261;DHT22;27926;48.062;7.474;2023-07-13T14:39:05;27.10;85.80
42261;DHT22;27926;48.062;7.474;2023-07-13T14:41:35;27.10;85.30
42261;DHT22;27926;48.062;7.474;2023-07-13T14:44:00;27.20;85.70
42261;DHT22;27926;48.062;7.474;2023-07-13T14:46:32;27.40;85.50
42261;DHT22;27926;48.062;7.474;2023-07-13T14:49:16;27.50;85.20
42261;DHT22;27926;48.062;7.474;2023-07-13T14:51:45;27.60;84.50
42261;DHT22;27926;48.062;7.474;2023-07-13T14:54:10;27.70;86.20
42261;DHT22;27926;48.062;7.474;2023-07-13T14:56:34;27.50;86.20
42261;DHT22;27926;48.062;7.474;2023-07-13T14:58:59;27.30;85.70
42261;DHT22;27926;48.062;7.474;2023-07-13T15:01:23;27.00;87.40
42261;DHT22;27926;48.062;7.474;2023-07-13T15:03:50;26.70;86.30
42261;DHT22;27926;48.062;7.474;2023-07-13T15:06:16;26.50;84.30
42261;DHT22;27926;48.062;7.474;2023-07-13T15:08:41;26.40;86.70
42261;DHT22;27926;48.062;7.474;2023-07-13T15:11:06;26.40;86.70
42261;DHT22;27926;48.062;7.474;2023-07-13T15:13:31;26.30;85.30
42261;DHT22;27926;48.062;7.474;2023-07-13T15:15:56;26.30;86.20
42261;DHT22;27926;48.062;7.474;2023-07-13T15:18:23;26.20;84.30
42261;DHT22;27926;48.062;7.474;2023-07-13T15:20:50;26.20;86.20
42261;DHT22;27926;48.062;7.474;2023-07-13T15:23:16;26.20;85.80
42261;DHT22;27926;48.062;7.474;2023-07-13T15:25:42;26.30;86.00
42261;DHT22;27926;48.062;7.474;2023-07-13T15:28:08;26.30;87.50
42261;DHT22;27926;48.062;7.474;2023-07-13T15:30:47;26.40;88.40
42261;DHT22;27926;48.062;7.474;2023-07-13T15:33:25;26.50;88.10
42261;DHT22;27926;48.062;7.474;2023-07-13T15:35:51;26.50;87.80
42261;DHT22;27926;48.062;7.474;2023-07-13T15:38:21;26.50;88.80
42261;DHT22;27926;48.062;7.474;2023-07-13T15:40:47;26.60;89.30
42261;DHT22;27926;48.062;7.474;2023-07-13T15:43:13;26.70;86.70
42261;DHT22;27926;48.062;7.474;2023-07-13T15:45:39;26.80;84.80
42261;DHT22;27926;48.062;7.474;2023-07-13T15:48:17;26.80;84.00
42261;DHT22;27926;48.062;7.474;2023-07-13T15:50:45;26.70;83.60
42261;DHT22;27926;48.062;7.474;2023-07-13T15:53:12;26.60;84.10
42261;DHT22;27926;48.062;7.474;2023-07-13T15:55:39;26.70;85.90
42261;DHT22;27926;48.062;7.474;2023-07-13T15:58:04;26.70;86.30
42261;DHT22;27926;48.062;7.474;2023-07-13T16:00:29;26.60;85.90
42261;DHT22;27926;48.062;7.474;2023-07-13T16:02:54;26.50;86.60
42261;DHT22;27926;48.062;7.474;2023-07-13T16:05:20;26.40;85.30
42261;DHT22;27926;48.062;7.474;2023-07-13T16:07:47;26.30;85.70
42261;DHT22;27926;48.062;7.474;2023-07-13T16:10:16;26.20;87.00